M I D A S
Marine Information and Data Acquisition System
Tripno 877 of the Zeeleeuw from 2005-04-05 07:01:00 to 2005-04-05 10:52:00
Back to CruiseResearch ActivitiesStationsMapUnderway DataData graphs

EquipmentUnitsComment
TimeDGPSUTC
LatitudeDGPSDM.mWGS84
LongitudeDGPSDM.mWGS84
HeadingGyrodeg 
SOGDGPSknotsSpeed over ground
COGDGPSdegCourse over ground
DepthEcho soundermeters200 kHz
Missing or incorrect values are displayed as -999
Navigation data collected by the RV Zeeleeuw from 2005-04-05 07:01:10 to 2005-04-05 10:52:35
Time Latitude Longitude Heading SOG COG Depth
2005-04-05 07:02:16 51°13.621 2°56.013 120.4 4 297 -999
2005-04-05 07:03:15 51°13.658 2°55.904 117.3 4.9 297 -999
2005-04-05 07:04:16 51°13.68 2°55.785 97.9 4.3 280 -999
2005-04-05 07:05:15 51°13.692 2°55.76 45.9 2.1 31 12.8
2005-04-05 07:06:15 51°13.745 2°55.732 323.1 4.2 321 10.5
2005-04-05 07:07:15 51°13.8 2°55.665 330.2 4.3 328 10.7
2005-04-05 07:08:15 51°13.858 2°55.607 330.7 4.5 335 10.9
2005-04-05 07:09:15 51°13.925 2°55.538 329.7 4.5 327 10.8
2005-04-05 07:10:15 51°13.972 2°55.483 321.9 2.7 322 9.6
2005-04-05 07:11:15 51°13.996 2°55.456 330.9 1.4 339 8.1
2005-04-05 07:12:15 51°14.009 2°55.45 349.1 0.7 -999 8.7
2005-04-05 07:13:15 51°14.011 2°55.448 342.6 0.1 237 8.6
2005-04-05 07:14:15 51°14.011 2°55.448 351.4 0.1 69 8.6
2005-04-05 07:15:16 51°14.011 2°55.447 349.8 -999 173 8.5
2005-04-05 07:16:15 51°14.012 2°55.448 349.8 0.1 359 8.7
2005-04-05 07:17:16 51°14.01 2°55.447 349.7 -999 19 8.7
2005-04-05 07:18:16 51°14.008 2°55.446 349.6 -999 16 8.7
2005-04-05 07:19:15 51°14.01 2°55.448 349.6 -999 33 8.7
2005-04-05 07:20:15 51°14.011 2°55.449 349.6 -999 8 8.7
2005-04-05 07:21:15 51°14.011 2°55.449 349.5 -999 36 8.7
2005-04-05 07:22:15 51°14.01 2°55.448 349.4 -999 22 8.7
2005-04-05 07:23:15 51°14.01 2°55.448 349.4 -999 23 8.7
2005-04-05 07:24:15 51°14.009 2°55.447 349.4 -999 39 8.7
2005-04-05 07:25:16 51°14.01 2°55.447 349.3 -999 8 8.9
2005-04-05 07:26:15 51°14.01 2°55.447 349.3 -999 40 8.8
2005-04-05 07:27:15 51°14.012 2°55.449 349.2 -999 41 8.9
2005-04-05 07:28:15 51°14.012 2°55.448 349.2 -999 266 8.8
2005-04-05 07:29:15 51°14.013 2°55.449 349.2 -999 242 8.9
2005-04-05 07:30:15 51°14.012 2°55.449 349.1 -999 123 8.9
2005-04-05 07:31:15 51°14.012 2°55.448 349.1 -999 23 8.9
2005-04-05 07:32:15 51°14.012 2°55.449 349.1 -999 43 8.9
2005-04-05 07:33:16 51°14.012 2°55.449 349.1 -999 301 9
2005-04-05 07:34:15 51°14.012 2°55.448 349.1 -999 343 8.9
2005-04-05 07:35:15 51°14.011 2°55.449 349.1 -999 247 8.9
2005-04-05 07:36:15 51°14.01 2°55.447 349.1 -999 69 9
2005-04-05 07:37:15 51°14.011 2°55.448 349.1 -999 175 9
2005-04-05 07:38:15 51°14.01 2°55.447 349.1 -999 39 8.9
2005-04-05 07:39:16 51°14.012 2°55.449 349.1 -999 112 9
2005-04-05 07:40:15 51°14.012 2°55.448 349.1 -999 61 9
2005-04-05 07:41:15 51°14.013 2°55.449 349.1 -999 93 9
2005-04-05 07:42:15 51°14.013 2°55.449 349.1 -999 295 9.1
2005-04-05 07:43:15 51°14.012 2°55.449 349.1 -999 33 9.1
2005-04-05 07:44:15 51°14.012 2°55.448 349.1 -999 30 9.1
2005-04-05 07:45:15 51°14.011 2°55.448 349.1 -999 5 9.1
2005-04-05 07:46:15 51°14.012 2°55.448 349.2 -999 2 9.1
2005-04-05 07:47:16 51°14.011 2°55.448 349.2 -999 354 -999
2005-04-05 07:48:15 51°14.011 2°55.448 349.3 -999 28 9.2
2005-04-05 07:49:15 51°14.011 2°55.448 349.3 -999 14 9.2
2005-04-05 07:50:15 51°14.011 2°55.448 349.4 -999 225 9.2
2005-04-05 07:51:15 51°14.011 2°55.447 349.4 -999 194 9.2
2005-04-05 07:52:15 51°14.011 2°55.447 349.5 -999 45 9.2
2005-04-05 07:53:15 51°14.011 2°55.448 349.5 -999 44 9.3
2005-04-05 07:54:15 51°14.012 2°55.448 349.5 -999 50 9.3
2005-04-05 07:55:15 51°14.012 2°55.448 349.6 -999 192 9.3
2005-04-05 07:56:15 51°14.012 2°55.448 349.6 -999 262 9.3
2005-04-05 07:57:15 51°14.013 2°55.448 349.6 -999 242 9.4
2005-04-05 07:58:15 51°14.013 2°55.448 349.7 -999 314 9.3
2005-04-05 07:59:15 51°14.012 2°55.448 349.7 -999 105 9.3
2005-04-05 08:00:15 51°14.012 2°55.448 349.7 -999 49 9.3
2005-04-05 08:01:15 51°14.012 2°55.447 349.7 -999 321 9.4
2005-04-05 08:02:15 51°14.011 2°55.447 349.8 -999 62 9.5
2005-04-05 08:03:15 51°14.011 2°55.447 349.8 -999 357 9.5
2005-04-05 08:04:15 51°14.011 2°55.447 349.8 -999 33 9.5
2005-04-05 08:05:15 51°14.011 2°55.447 349.8 -999 37 9.5
2005-04-05 08:06:15 51°14.012 2°55.448 349.8 -999 141 9.4
2005-04-05 08:07:15 51°14.012 2°55.447 349.9 -999 279 9.5
2005-04-05 08:08:16 51°14.012 2°55.448 349.9 -999 239 9.4
2005-04-05 08:09:14 51°14.012 2°55.448 349.9 -999 325 9.6
2005-04-05 08:10:15 51°14.013 2°55.448 349.8 -999 273 9.6
2005-04-05 08:11:15 51°14.013 2°55.448 349.9 -999 344 9.5
2005-04-05 08:12:15 51°14.012 2°55.448 349.9 -999 334 9.6
2005-04-05 08:13:15 51°14.012 2°55.448 349.9 -999 46 9.6
2005-04-05 08:14:15 51°14.012 2°55.448 350 -999 289 9.5
2005-04-05 08:15:15 51°14.012 2°55.447 350 -999 28 -999
2005-04-05 08:16:15 51°14.011 2°55.447 349.9 -999 295 9.5
2005-04-05 08:17:15 51°14.011 2°55.448 349.8 -999 45 9.9
2005-04-05 08:18:15 51°14.011 2°55.448 349.8 -999 150 9.7
2005-04-05 08:19:15 51°14.011 2°55.448 349.8 -999 18 9.7
2005-04-05 08:20:15 51°14.011 2°55.448 349.8 -999 29 9.6
2005-04-05 08:21:15 51°14.011 2°55.448 349.7 -999 263 9.7
2005-04-05 08:22:15 51°14.011 2°55.448 350.4 -999 358 9.8
2005-04-05 08:23:15 51°14.011 2°55.448 350.4 -999 4 9.8
2005-04-05 08:24:15 51°14.011 2°55.448 350.4 -999 337 -999
2005-04-05 08:25:16 51°14.011 2°55.448 350.4 -999 48 9.8
2005-04-05 08:26:16 51°14.011 2°55.447 350.4 -999 89 9.7
2005-04-05 08:27:15 51°14.01 2°55.447 350.4 -999 221 9.8
2005-04-05 08:28:15 51°14.01 2°55.447 350.4 -999 304 9.8
2005-04-05 08:29:16 51°14.011 2°55.448 350.4 -999 5 -999
2005-04-05 08:30:16 51°14.011 2°55.448 350.3 -999 285 9.8
2005-04-05 08:31:15 51°14.011 2°55.447 350.3 -999 202 9.8
2005-04-05 08:32:15 51°14.01 2°55.447 350.3 -999 96 9.8
2005-04-05 08:33:15 51°14.01 2°55.446 350.3 0.1 35 -999
2005-04-05 08:34:15 51°14.01 2°55.446 350.3 -999 47 9.9
2005-04-05 08:35:15 51°14.01 2°55.445 350.2 -999 118 9.9
2005-04-05 08:36:15 51°14.01 2°55.446 350.3 -999 93 9.9
2005-04-05 08:37:15 51°14.01 2°55.446 350.5 -999 23 9.9
2005-04-05 08:38:15 51°14.01 2°55.446 350.5 -999 312 9.9
2005-04-05 08:39:16 51°14.011 2°55.448 350.5 -999 22 9.9
2005-04-05 08:40:15 51°14.012 2°55.449 350.5 -999 9 9.9
2005-04-05 08:41:15 51°14.012 2°55.448 350.5 -999 10 9.9
2005-04-05 08:42:16 51°14.012 2°55.449 350.5 -999 117 10
2005-04-05 08:43:15 51°14.012 2°55.448 350.5 -999 133 10.1
2005-04-05 08:44:15 51°14.011 2°55.447 350.5 -999 344 10
2005-04-05 08:45:16 51°14.011 2°55.448 350.5 -999 251 10.1
2005-04-05 08:46:15 51°14.012 2°55.448 350.5 -999 84 10
2005-04-05 08:47:15 51°14.011 2°55.448 350.5 -999 339 10
2005-04-05 08:48:15 51°14.012 2°55.448 350.5 -999 303 10
2005-04-05 08:49:15 51°14.012 2°55.448 350.5 -999 122 10.2
2005-04-05 08:50:16 51°14.012 2°55.448 350.5 -999 238 10.1
2005-04-05 08:51:16 51°14.012 2°55.448 350.5 -999 256 10.1
2005-04-05 08:52:15 51°14.012 2°55.448 350.5 -999 215 10.2
2005-04-05 08:53:15 51°14.011 2°55.448 350.4 -999 234 10.1
2005-04-05 08:54:16 51°14.011 2°55.448 350.4 -999 279 10
2005-04-05 08:55:15 51°14.011 2°55.448 350.4 -999 188 10.1
2005-04-05 08:56:15 51°14.011 2°55.448 350.4 -999 75 10.1
2005-04-05 08:57:15 51°14.012 2°55.448 350.4 -999 46 10.1
2005-04-05 08:58:15 51°14.011 2°55.447 350.4 -999 190 -999
2005-04-05 08:59:16 51°14.011 2°55.448 350.4 -999 212 10.1
2005-04-05 09:00:15 51°14.011 2°55.448 350.4 -999 189 10.1
2005-04-05 09:01:15 51°14.011 2°55.448 350.4 -999 349 10.2
2005-04-05 09:02:15 51°14.011 2°55.448 350.4 -999 287 10.1
2005-04-05 09:03:15 51°14.011 2°55.448 350.4 -999 45 10.2
2005-04-05 09:04:15 51°14.011 2°55.448 350.4 -999 308 10.1
2005-04-05 09:05:16 51°14.011 2°55.448 350.4 -999 69 10.2
2005-04-05 09:06:15 51°14.011 2°55.448 350.3 -999 43 10.2
2005-04-05 09:07:15 51°14.011 2°55.448 350.3 -999 220 10.1
2005-04-05 09:08:16 51°14.011 2°55.447 350.3 -999 35 10.1
2005-04-05 09:09:16 51°14.011 2°55.448 350.3 -999 72 10.3
2005-04-05 09:10:15 51°14.012 2°55.447 350.3 -999 351 10.2
2005-04-05 09:11:15 51°14.012 2°55.447 350.3 -999 36 10.3
2005-04-05 09:12:15 51°14.012 2°55.447 350.3 -999 160 10.2
2005-04-05 09:13:15 51°14.012 2°55.446 350.4 -999 202 10.2
2005-04-05 09:14:15 51°14.012 2°55.447 350.4 -999 298 10.4
2005-04-05 09:15:15 51°14.012 2°55.446 350.4 -999 211 10.2
2005-04-05 09:16:15 51°14.011 2°55.447 350.4 -999 27 10.3
2005-04-05 09:17:15 51°14.011 2°55.447 350.4 -999 40 10.2
2005-04-05 09:18:15 51°14.011 2°55.447 350.4 -999 62 10.3
2005-04-05 09:19:15 51°14.011 2°55.447 350.4 -999 65 10.2
2005-04-05 09:20:15 51°14.011 2°55.447 350.4 -999 310 10.1
2005-04-05 09:21:16 51°14.011 2°55.448 350.4 -999 138 10.1
2005-04-05 09:22:16 51°14.011 2°55.449 350.4 -999 286 10.2
2005-04-05 09:23:16 51°14.011 2°55.448 350.4 -999 357 10.3
2005-04-05 09:24:16 51°14.011 2°55.448 350.4 -999 338 10.2
2005-04-05 09:25:16 51°14.011 2°55.448 350.5 -999 83 -999
2005-04-05 09:26:15 51°14.011 2°55.447 350.4 -999 353 10.3
2005-04-05 09:27:16 51°14.011 2°55.447 350.4 -999 151 10.3
2005-04-05 09:28:15 51°14.01 2°55.447 350.5 -999 33 -999
2005-04-05 09:29:15 51°14.01 2°55.447 350.5 -999 52 -999
2005-04-05 09:30:15 51°14.01 2°55.447 350.5 -999 16 10.2
2005-04-05 09:31:16 51°14.01 2°55.448 350.5 -999 23 10.2
2005-04-05 09:32:15 51°14.01 2°55.448 350.5 -999 310 10.2
2005-04-05 09:33:15 51°14.011 2°55.447 350.5 -999 261 10.1
2005-04-05 09:34:15 51°14.011 2°55.447 350.5 -999 110 10.2
2005-04-05 09:35:16 51°14.011 2°55.447 350.5 -999 224 -999
2005-04-05 09:36:15 51°14.012 2°55.447 350.5 -999 179 10.1
2005-04-05 09:37:15 51°14.012 2°55.448 350.5 -999 281 10.3
2005-04-05 09:38:15 51°14.011 2°55.448 350.5 -999 334 10.2
2005-04-05 09:39:15 51°14.011 2°55.448 350.5 -999 311 10.4
2005-04-05 09:40:16 51°14.011 2°55.448 350.5 -999 77 10.2
2005-04-05 09:41:15 51°14.011 2°55.448 350.5 -999 282 10.1
2005-04-05 09:42:16 51°14.011 2°55.448 350.5 -999 74 10.2
2005-04-05 09:43:16 51°14.011 2°55.448 350.6 -999 269 -999
2005-04-05 09:44:16 51°14.011 2°55.447 350.6 -999 285 10.3
2005-04-05 09:45:16 51°14.011 2°55.447 350.6 -999 210 -999
2005-04-05 09:46:15 51°14.011 2°55.447 350.6 -999 161 10.1
2005-04-05 09:47:16 51°14.011 2°55.448 350.6 0.1 68 10.2
2005-04-05 09:48:15 51°14.011 2°55.448 350.6 -999 145 10.3
2005-04-05 09:49:15 51°14.011 2°55.448 350.6 -999 149 10.2
2005-04-05 09:50:15 51°14.011 2°55.447 350.6 -999 332 -999
2005-04-05 09:51:15 51°14.01 2°55.447 350.6 -999 321 10.2
2005-04-05 09:52:15 51°14.01 2°55.448 350.6 -999 261 10.3
2005-04-05 09:53:15 51°14.01 2°55.448 350.6 -999 354 10.2
2005-04-05 09:54:15 51°14.01 2°55.447 350.6 -999 124 10.2
2005-04-05 09:55:14 51°14.01 2°55.447 350.6 -999 98 10.2
2005-04-05 09:56:16 51°14.011 2°55.448 350.5 -999 320 10.2
2005-04-05 09:57:16 51°14.011 2°55.448 350.5 -999 245 -999
2005-04-05 09:58:15 51°14.01 2°55.448 350.5 -999 72 10.2
2005-04-05 09:59:14 51°14.011 2°55.449 350.5 -999 281 10.2
2005-04-05 10:00:15 51°14.011 2°55.449 350.5 -999 312 10.2
2005-04-05 10:01:15 51°14.011 2°55.448 350.5 -999 92 10.1
2005-04-05 10:02:16 51°14.011 2°55.449 350.5 -999 298 10.1
2005-04-05 10:03:15 51°14.011 2°55.448 350.5 -999 74 10.2
2005-04-05 10:04:15 51°14.012 2°55.45 350.4 -999 56 10.2
2005-04-05 10:05:16 51°14.012 2°55.449 350.5 -999 348 10.2
2005-04-05 10:06:15 51°14.011 2°55.448 350.4 -999 127 10.1
2005-04-05 10:07:15 51°14.011 2°55.449 350.5 -999 94 10.2
2005-04-05 10:08:15 51°14.011 2°55.449 350.4 -999 316 10.3
2005-04-05 10:09:16 51°14.011 2°55.449 350.4 -999 253 10.1
2005-04-05 10:10:14 51°14.012 2°55.449 350.4 -999 357 10.1
2005-04-05 10:11:15 51°14.011 2°55.449 350.4 -999 75 -999
2005-04-05 10:12:15 51°14.012 2°55.449 350.5 -999 191 10.3
2005-04-05 10:13:16 51°14.011 2°55.448 350.4 -999 177 10.1
2005-04-05 10:14:14 51°14.011 2°55.449 350.3 0.1 17 10.1
2005-04-05 10:15:16 51°14.011 2°55.449 353 -999 228 10.2
2005-04-05 10:16:16 51°14.012 2°55.449 338.9 0.1 45 10.4
2005-04-05 10:17:16 51°13.998 2°55.47 325.7 2.8 140 -999
2005-04-05 10:18:15 51°13.944 2°55.53 331.6 4.1 146 -999
2005-04-05 10:19:16 51°13.901 2°55.569 343.7 2 158 -999
2005-04-05 10:20:15 51°13.892 2°55.574 341.8 0.4 158 12.3
2005-04-05 10:21:15 51°13.889 2°55.571 341.5 0.1 321 12.2
2005-04-05 10:22:15 51°13.893 2°55.568 347.6 0.4 333 12.2
2005-04-05 10:23:15 51°13.915 2°55.558 346.5 1.9 344 12.4
2005-04-05 10:24:16 51°13.966 2°55.537 346.5 3.9 346 12.4
2005-04-05 10:25:15 51°14.024 2°55.498 335 3.7 334 12.3
2005-04-05 10:26:16 51°14.078 2°55.459 339.2 3.4 336 12.1
2005-04-05 10:27:15 51°14.126 2°55.426 339 3.2 337 12.2
2005-04-05 10:28:15 51°14.178 2°55.389 332.9 3.4 332 13.5
2005-04-05 10:29:15 51°14.223 2°55.34 322.2 3.4 322 12.7
2005-04-05 10:30:16 51°14.264 2°55.271 311.2 3.8 310 13.4
2005-04-05 10:31:15 51°14.306 2°55.184 309.2 4.4 306 12.6
2005-04-05 10:32:15 51°14.358 2°55.059 301.7 7.3 300 12.7
2005-04-05 10:33:15 51°14.406 2°54.81 278.7 11.3 279 12.7
2005-04-05 10:34:15 51°14.434 2°54.499 279.6 12 280 12.7
2005-04-05 10:35:15 51°14.474 2°54.208 278.2 11.2 289 12.4
2005-04-05 10:36:15 51°14.406 2°54.126 182.9 5 166 12.2
2005-04-05 10:37:16 51°14.382 2°54.261 88.5 6.1 79 12.1
2005-04-05 10:38:15 51°14.431 2°54.419 64.9 7.1 61 12.5
2005-04-05 10:39:15 51°14.455 2°54.632 99.2 9.6 90 13
2005-04-05 10:40:14 51°14.414 2°54.925 114.9 12.1 108 12.9
2005-04-05 10:41:15 51°14.312 2°55.189 131.9 11.4 127 12.3
2005-04-05 10:42:16 51°14.214 2°55.346 144.4 7.3 142 12.9
2005-04-05 10:43:15 51°14.118 2°55.425 159.1 6.4 156 12.2
2005-04-05 10:44:16 51°14.021 2°55.496 159.7 6.3 156 11.7
2005-04-05 10:45:15 51°13.927 2°55.564 158.9 6.3 155 12.2
2005-04-05 10:46:15 51°13.832 2°55.633 160.1 6.2 156 12.3
2005-04-05 10:47:15 51°13.748 2°55.723 143.4 6 138 11.9
2005-04-05 10:48:15 51°13.689 2°55.823 134.8 4.7 130 12.2
2005-04-05 10:49:15 51°13.648 2°55.917 126.8 4.1 123 11.3
2005-04-05 10:50:16 51°13.618 2°56.004 117.4 3.5 113 11.4
2005-04-05 10:51:16 51°13.602 2°56.069 115.4 2.4 111 10.4
2005-04-05 10:52:16 51°13.593 2°56.102 118.9 0.4 116 9.3